createdAt,value
2018-05-23T00:00:51.698Z,49.10
2018-05-23T00:03:19.912Z,49.30
2018-05-23T00:05:48.928Z,49.40
2018-05-23T00:08:17.908Z,50.00
2018-05-23T00:10:46.903Z,49.80
2018-05-23T00:13:15.887Z,50.10
2018-05-23T00:15:44.898Z,50.00
2018-05-23T00:18:13.880Z,50.10
2018-05-23T00:20:42.859Z,50.20
2018-05-23T00:23:11.087Z,50.10
2018-05-23T00:25:39.314Z,51.00
2018-05-23T00:28:07.553Z,50.50
2018-05-23T00:30:35.773Z,51.40
2018-05-23T00:33:04.768Z,50.70
2018-05-23T00:35:33.786Z,50.80
2018-05-23T00:38:01.990Z,50.70
2018-05-23T00:40:30.225Z,51.00
2018-05-23T00:42:58.473Z,51.10
2018-05-23T00:45:26.680Z,51.20
2018-05-23T00:47:54.907Z,51.30
2018-05-23T00:50:23.274Z,51.40
2018-05-23T00:52:51.361Z,51.30
2018-05-23T00:55:31.512Z,51.60
2018-05-23T00:57:59.740Z,51.70
2018-05-23T01:00:27.975Z,51.70
2018-05-23T01:02:56.193Z,51.90
2018-05-23T01:05:24.441Z,52.20
2018-05-23T01:07:52.675Z,52.60
2018-05-23T01:10:20.888Z,52.90
2018-05-23T01:12:49.137Z,53.10
2018-05-23T01:15:17.357Z,53.30
2018-05-23T01:17:46.364Z,53.50
2018-05-23T01:20:14.589Z,53.40
2018-05-23T01:22:42.836Z,53.70
2018-05-23T01:25:11.066Z,53.30
2018-05-23T01:27:39.317Z,53.00
2018-05-23T01:30:07.528Z,53.10
2018-05-23T01:32:36.512Z,53.00
2018-05-23T01:35:05.512Z,52.90
2018-05-23T01:37:34.492Z,53.10
2018-05-23T01:40:02.736Z,53.00
2018-05-23T01:42:31.723Z,53.00
2018-05-23T01:44:59.964Z,52.90
2018-05-23T01:47:29.035Z,52.90
2018-05-23T01:49:57.188Z,52.80
2018-05-23T01:52:25.399Z,52.90
2018-05-23T01:54:54.432Z,53.00
2018-05-23T01:57:22.655Z,53.00
2018-05-23T01:59:50.863Z,53.10
2018-05-23T02:02:19.096Z,53.30
2018-05-23T02:04:47.306Z,53.50
2018-05-23T02:07:15.535Z,53.60
2018-05-23T02:09:43.781Z,53.70
2018-05-23T02:12:12.012Z,53.60
2018-05-23T02:14:41.024Z,53.60
2018-05-23T02:17:10.032Z,53.80
2018-05-23T02:19:38.242Z,53.70
2018-05-23T02:22:06.451Z,53.90
2018-05-23T02:24:35.458Z,54.00
2018-05-23T02:27:04.460Z,53.90
2018-05-23T02:29:32.705Z,53.90
2018-05-23T02:32:00.919Z,54.00
2018-05-23T02:34:29.248Z,54.00
2018-05-23T02:36:57.447Z,54.10
2018-05-23T02:39:26.452Z,54.50
2018-05-23T02:41:55.437Z,54.60
2018-05-23T02:44:24.444Z,54.50
2018-05-23T02:46:52.668Z,54.50
2018-05-23T02:49:21.667Z,54.90
2018-05-23T02:51:49.885Z,54.80
2018-05-23T02:54:18.878Z,54.90
2018-05-23T02:56:47.889Z,54.90
2018-05-23T02:59:16.133Z,54.90
2018-05-23T03:01:44.401Z,55.20
2018-05-23T03:04:12.622Z,55.20
2018-05-23T03:06:40.840Z,55.20
2018-05-23T03:09:09.075Z,55.30
2018-05-23T03:11:37.325Z,55.30
2018-05-23T03:14:06.307Z,55.60
2018-05-23T03:16:35.323Z,55.80
2018-05-23T03:19:03.561Z,55.70
2018-05-23T03:21:31.782Z,55.80
2018-05-23T03:24:00.039Z,56.00
2018-05-23T03:26:29.025Z,56.10
2018-05-23T03:28:58.013Z,56.10
2018-05-23T03:31:26.243Z,56.00
2018-05-23T03:33:54.491Z,56.20
2018-05-23T03:36:22.703Z,56.20
2018-05-23T03:38:50.929Z,56.40
2018-05-23T03:41:19.933Z,57.00
2018-05-23T03:43:48.156Z,57.00
2018-05-23T03:46:16.388Z,57.10
2018-05-23T03:48:44.634Z,57.40
2018-05-23T03:51:12.847Z,57.70
2018-05-23T03:53:41.074Z,58.70
2018-05-23T03:56:09.309Z,58.10
2018-05-23T03:58:37.580Z,58.30
2018-05-23T04:01:17.618Z,58.40
2018-05-23T04:03:57.648Z,58.40
2018-05-23T04:06:37.704Z,58.20
2018-05-23T04:09:06.714Z,58.40
2018-05-23T04:11:35.692Z,58.30
2018-05-23T04:14:03.951Z,58.30
2018-05-23T04:16:32.157Z,58.30
2018-05-23T04:19:01.146Z,58.70
2018-05-23T04:21:30.137Z,59.00
2018-05-23T04:23:59.127Z,58.90
2018-05-23T04:26:28.125Z,58.90
2018-05-23T04:28:57.125Z,59.00
2018-05-23T04:31:26.139Z,59.00
2018-05-23T04:33:54.367Z,59.00
2018-05-23T04:36:22.598Z,58.90
2018-05-23T04:38:50.836Z,59.20
2018-05-23T04:41:19.828Z,59.30
2018-05-23T04:43:48.832Z,59.50
2018-05-23T04:46:17.806Z,59.50
2018-05-23T04:48:46.073Z,59.40
2018-05-23T04:51:14.285Z,59.70
2018-05-23T04:53:42.512Z,59.60
2018-05-23T04:56:10.756Z,59.80
2018-05-23T04:58:38.974Z,59.90
2018-05-23T05:01:07.217Z,59.90
2018-05-23T05:03:35.450Z,60.00
2018-05-23T05:06:04.480Z,60.20
2018-05-23T05:08:32.715Z,60.20
2018-05-23T05:11:01.776Z,60.90
2018-05-23T05:13:29.993Z,60.30
2018-05-23T05:15:58.980Z,60.90
2018-05-23T05:18:27.204Z,60.80
2018-05-23T05:20:55.478Z,60.30
2018-05-23T05:23:23.721Z,60.80
2018-05-23T05:25:52.728Z,60.90
2018-05-23T05:28:20.977Z,60.90
2018-05-23T05:30:49.972Z,61.30
2018-05-23T05:33:18.991Z,61.00
2018-05-23T05:35:47.209Z,60.90
2018-05-23T05:38:15.433Z,60.90
2018-05-23T05:40:43.665Z,60.90
2018-05-23T05:43:11.896Z,60.90
2018-05-23T05:45:40.128Z,60.90
2018-05-23T05:48:08.361Z,60.90
2018-05-23T05:50:36.580Z,60.80
2018-05-23T05:53:04.820Z,60.60
2018-05-23T05:55:33.059Z,60.60
2018-05-23T05:58:02.040Z,60.20
2018-05-23T06:00:30.267Z,60.00
2018-05-23T06:02:58.479Z,60.20
2018-05-23T06:05:26.719Z,60.40
2018-05-23T06:07:54.946Z,60.90
2018-05-23T06:10:23.946Z,60.90
2018-05-23T06:12:52.949Z,60.60
2018-05-23T06:15:21.194Z,60.60
2018-05-23T06:17:49.420Z,60.40
2018-05-23T06:20:17.631Z,60.50
2018-05-23T06:22:45.875Z,60.60
2018-05-23T06:25:14.121Z,60.50
2018-05-23T06:27:43.100Z,60.60
2018-05-23T06:30:12.118Z,61.10
2018-05-23T06:32:40.352Z,61.10
2018-05-23T06:35:08.599Z,61.00
2018-05-23T06:37:36.817Z,61.10
2018-05-23T06:40:05.060Z,60.90
2018-05-23T06:42:33.279Z,60.90
2018-05-23T06:45:01.491Z,60.60
2018-05-23T06:47:29.725Z,60.90
2018-05-23T06:49:58.808Z,59.40
2018-05-23T06:52:27.762Z,59.40
2018-05-23T06:54:56.002Z,59.40
2018-05-23T06:57:24.249Z,58.80
2018-05-23T06:59:52.476Z,58.40
2018-05-23T07:02:20.689Z,58.30
2018-05-23T07:04:48.931Z,58.40
2018-05-23T07:07:17.169Z,58.30
2018-05-23T07:09:46.169Z,58.60
2018-05-23T07:12:15.163Z,58.20
2018-05-23T07:14:44.169Z,57.90
2018-05-23T07:17:13.155Z,57.80
2018-05-23T07:19:42.162Z,57.60
2018-05-23T07:22:10.400Z,57.60
2018-05-23T07:24:38.619Z,57.40
2018-05-23T07:27:06.836Z,57.00
2018-05-23T07:29:35.084Z,56.30
2018-05-23T07:32:03.296Z,55.90
2018-05-23T07:34:31.535Z,56.10
2018-05-23T07:36:59.765Z,56.40
2018-05-23T07:39:27.995Z,55.90
2018-05-23T07:41:56.219Z,55.60
2018-05-23T07:44:25.230Z,55.10
2018-05-23T07:46:53.444Z,55.10
2018-05-23T07:49:21.688Z,55.10
2018-05-23T07:51:49.900Z,55.00
2018-05-23T07:54:18.112Z,54.40
2018-05-23T07:56:47.137Z,54.80
2018-05-23T07:59:15.349Z,54.70
2018-05-23T08:01:43.562Z,55.10
2018-05-23T08:04:12.565Z,54.20
2018-05-23T08:06:41.568Z,53.90
2018-05-23T08:09:09.812Z,53.90
2018-05-23T08:11:38.092Z,53.70
2018-05-23T08:14:06.304Z,53.80
2018-05-23T08:16:34.545Z,54.20
2018-05-23T08:19:02.815Z,53.80
2018-05-23T08:21:31.020Z,53.50
2018-05-23T08:23:59.999Z,53.70
2018-05-23T08:26:28.995Z,53.60
2018-05-23T08:28:58.005Z,53.90
2018-05-23T08:31:27.022Z,53.80
2018-05-23T08:33:55.237Z,53.80
2018-05-23T08:36:23.491Z,53.90
2018-05-23T08:38:51.697Z,53.60
2018-05-23T08:41:20.074Z,53.40
2018-05-23T08:43:48.285Z,53.70
2018-05-23T08:46:16.490Z,53.90
2018-05-23T08:48:44.748Z,53.50
2018-05-23T08:51:12.981Z,53.00
2018-05-23T08:53:41.217Z,52.70
2018-05-23T08:56:09.437Z,52.70
2018-05-23T08:58:38.432Z,52.30
2018-05-23T09:01:06.672Z,52.30
2018-05-23T09:03:34.901Z,52.20
2018-05-23T09:06:03.136Z,51.80
2018-05-23T09:08:31.366Z,51.10
2018-05-23T09:10:59.606Z,50.70
2018-05-23T09:13:27.875Z,50.50
2018-05-23T09:15:56.069Z,50.30
2018-05-23T09:18:25.060Z,50.00
2018-05-23T09:20:53.297Z,50.00
2018-05-23T09:23:21.516Z,49.50
2018-05-23T09:25:49.718Z,49.50
2018-05-23T09:28:17.975Z,50.20
2018-05-23T09:30:46.971Z,49.50
2018-05-23T09:33:15.193Z,49.40
2018-05-23T09:35:43.436Z,49.20
2018-05-23T09:38:11.668Z,48.70
2018-05-23T09:40:39.889Z,48.00
2018-05-23T09:43:08.149Z,47.20
2018-05-23T09:45:36.383Z,47.70
2018-05-23T09:48:04.617Z,48.00
2018-05-23T09:50:32.854Z,47.40
2018-05-23T09:53:01.069Z,47.70
2018-05-23T09:55:29.303Z,47.20
2018-05-23T09:57:57.510Z,47.00
2018-05-23T10:00:25.779Z,47.70
2018-05-23T10:02:54.795Z,46.90
2018-05-23T10:05:23.026Z,46.90
2018-05-23T10:07:51.274Z,47.40
2018-05-23T10:10:19.515Z,47.00
2018-05-23T10:12:47.732Z,47.20
2018-05-23T10:15:15.965Z,46.70
2018-05-23T10:17:44.195Z,46.50
2018-05-23T10:20:12.424Z,46.20
2018-05-23T10:22:40.671Z,45.70
2018-05-23T10:25:09.671Z,45.50
2018-05-23T10:27:37.898Z,45.40
2018-05-23T10:30:06.198Z,45.00
2018-05-23T10:32:34.383Z,44.60
2018-05-23T10:35:02.610Z,44.50
2018-05-23T10:37:30.899Z,45.00
2018-05-23T10:39:59.120Z,45.20
2018-05-23T10:42:28.120Z,44.50
2018-05-23T10:44:57.095Z,44.30
2018-05-23T10:47:26.104Z,44.00
2018-05-23T10:49:55.116Z,43.80
2018-05-23T10:52:23.368Z,43.80
2018-05-23T10:54:52.381Z,43.40
2018-05-23T10:57:20.629Z,43.40
2018-05-23T10:59:48.904Z,43.20
2018-05-23T11:02:17.141Z,42.80
2018-05-23T11:04:45.362Z,41.80
2018-05-23T11:07:13.624Z,42.10
2018-05-23T11:09:41.857Z,41.40
2018-05-23T11:12:10.077Z,41.50
2018-05-23T11:14:38.327Z,42.20
2018-05-23T11:17:06.570Z,42.30
2018-05-23T11:19:34.808Z,42.50
2018-05-23T11:22:03.043Z,42.40
2018-05-23T11:24:31.280Z,43.90
2018-05-23T11:27:00.300Z,42.30
2018-05-23T11:29:28.511Z,42.20
2018-05-23T11:31:56.757Z,42.00
2018-05-23T11:34:24.966Z,41.80
2018-05-23T11:36:53.211Z,41.10
2018-05-23T11:39:21.428Z,41.10
2018-05-23T11:41:49.685Z,41.90
2018-05-23T11:44:17.981Z,42.10
2018-05-23T11:46:46.252Z,41.60
2018-05-23T11:49:14.432Z,41.50
2018-05-23T11:51:42.663Z,41.50
2018-05-23T11:54:10.887Z,40.50
2018-05-23T11:56:39.115Z,40.20
2018-05-23T11:59:07.391Z,40.50
2018-05-23T12:01:35.638Z,40.50
2018-05-23T12:04:04.612Z,38.80
2018-05-23T12:06:32.864Z,38.80
2018-05-23T12:09:01.084Z,38.80
2018-05-23T12:11:30.156Z,38.00
2018-05-23T12:13:58.368Z,37.90
2018-05-23T12:16:26.609Z,37.90
2018-05-23T12:18:54.822Z,38.10
2018-05-23T12:21:23.121Z,37.90
2018-05-23T12:23:51.332Z,38.60
2018-05-23T12:26:19.552Z,38.90
2018-05-23T12:28:47.787Z,38.20
2018-05-23T12:31:16.008Z,39.50
2018-05-23T12:33:44.244Z,40.30
2018-05-23T12:36:12.604Z,40.40
2018-05-23T12:38:40.805Z,39.20
2018-05-23T12:41:09.886Z,37.00
2018-05-23T12:43:38.106Z,36.90
2018-05-23T12:46:07.122Z,36.80
2018-05-23T12:48:35.370Z,36.90
2018-05-23T12:51:03.616Z,37.30
2018-05-23T12:53:31.843Z,37.90
2018-05-23T12:56:00.084Z,39.00
2018-05-23T12:58:29.065Z,38.90
2018-05-23T13:00:58.081Z,39.80
2018-05-23T13:03:26.347Z,39.10
2018-05-23T13:05:54.519Z,39.40
2018-05-23T13:08:23.537Z,39.10
2018-05-23T13:10:51.775Z,39.00
2018-05-23T13:13:20.760Z,39.80
2018-05-23T13:15:48.998Z,38.90
2018-05-23T13:18:17.210Z,39.00
2018-05-23T13:20:45.943Z,38.30
2018-05-23T13:23:14.167Z,37.80
2018-05-23T13:25:42.479Z,37.90
2018-05-23T13:28:11.476Z,36.90
2018-05-23T13:30:40.473Z,36.60
2018-05-23T13:33:08.715Z,36.60
2018-05-23T13:35:36.944Z,37.00
2018-05-23T13:38:05.156Z,37.10
2018-05-23T13:40:33.400Z,36.50
2018-05-23T13:43:01.728Z,36.60
2018-05-23T13:45:29.929Z,36.60
2018-05-23T13:47:58.995Z,36.90
2018-05-23T13:50:27.196Z,36.90
2018-05-23T13:52:56.189Z,36.10
2018-05-23T13:55:25.211Z,35.90
2018-05-23T13:57:53.469Z,35.90
2018-05-23T14:00:21.675Z,36.00
2018-05-23T14:02:49.936Z,36.10
2018-05-23T14:05:18.191Z,36.10
2018-05-23T14:07:47.175Z,36.30
2018-05-23T14:10:16.205Z,36.60
2018-05-23T14:12:44.420Z,36.50
2018-05-23T14:15:15.352Z,36.30
2018-05-23T14:17:43.700Z,35.10
2018-05-23T14:20:11.926Z,35.90
2018-05-23T14:22:40.132Z,36.10
2018-05-23T14:25:08.367Z,36.80
2018-05-23T14:27:36.597Z,36.00
2018-05-23T14:30:04.845Z,36.70
2018-05-23T14:32:33.915Z,35.30
2018-05-23T14:35:02.112Z,35.20
2018-05-23T14:37:31.105Z,35.20
2018-05-23T14:40:00.108Z,34.80
2018-05-23T14:42:28.329Z,34.70
2018-05-23T14:44:56.588Z,35.10
2018-05-23T14:47:24.825Z,34.10
2018-05-23T14:49:53.819Z,34.30
2018-05-23T14:52:22.895Z,34.00
2018-05-23T14:54:51.062Z,33.90
2018-05-23T14:57:19.292Z,34.80
2018-05-23T14:59:47.550Z,34.90
2018-05-23T15:02:15.771Z,34.30
2018-05-23T15:04:44.004Z,34.50
2018-05-23T15:07:12.247Z,34.50
2018-05-23T15:09:40.489Z,34.10
2018-05-23T15:12:08.703Z,34.40
2018-05-23T15:14:36.954Z,34.00
2018-05-23T15:17:05.173Z,33.70
2018-05-23T15:19:34.202Z,33.60
2018-05-23T15:22:02.427Z,33.60
2018-05-23T15:24:30.661Z,33.80
2018-05-23T15:26:58.893Z,34.00
2018-05-23T15:29:27.882Z,34.30
2018-05-23T15:31:56.881Z,34.60
2018-05-23T15:34:25.888Z,34.90
2018-05-23T15:36:54.149Z,34.80
2018-05-23T15:39:23.165Z,35.30
2018-05-23T15:41:51.373Z,35.30
2018-05-23T15:44:19.630Z,35.50
2018-05-23T15:46:47.880Z,35.70
2018-05-23T15:49:16.096Z,35.50
2018-05-23T15:51:44.346Z,35.60
2018-05-23T15:54:12.568Z,35.60
2018-05-23T15:56:40.792Z,35.20
2018-05-23T15:59:09.027Z,35.00
2018-05-23T16:01:37.267Z,35.30
2018-05-23T16:04:05.529Z,35.20
2018-05-23T16:06:33.747Z,34.70
2018-05-23T16:09:01.971Z,34.60
2018-05-23T16:11:30.218Z,34.60
2018-05-23T16:13:58.431Z,34.90
2018-05-23T16:16:26.679Z,34.60
2018-05-23T16:18:55.660Z,34.80
2018-05-23T16:21:23.914Z,34.80
2018-05-23T16:23:52.127Z,34.70
2018-05-23T16:26:21.107Z,34.20
2018-05-23T16:28:50.120Z,34.20
2018-05-23T16:31:19.143Z,34.10
2018-05-23T16:33:47.378Z,34.00
2018-05-23T16:36:16.376Z,34.20
2018-05-23T16:38:45.351Z,34.00
2018-05-23T16:41:13.594Z,33.90
2018-05-23T16:43:41.807Z,34.00
2018-05-23T16:46:10.172Z,34.20
2018-05-23T16:48:38.392Z,34.30
2018-05-23T16:51:06.634Z,34.30
2018-05-23T16:53:34.897Z,34.20
2018-05-23T16:56:03.107Z,34.40
2018-05-23T16:58:32.112Z,34.30
2018-05-23T17:01:00.732Z,34.30
2018-05-23T17:03:29.142Z,34.30
2018-05-23T17:05:57.329Z,34.50
2018-05-23T17:08:26.332Z,34.80
2018-05-23T17:10:55.311Z,34.40
2018-05-23T17:13:23.570Z,34.40
2018-05-23T17:15:51.830Z,34.30
2018-05-23T17:18:20.098Z,34.50
2018-05-23T17:20:48.333Z,34.30
2018-05-23T17:23:17.342Z,34.40
2018-05-23T17:25:45.564Z,34.30
2018-05-23T17:28:13.800Z,34.40
2018-05-23T17:30:42.795Z,34.40
2018-05-23T17:33:11.066Z,34.30
2018-05-23T17:35:39.288Z,34.40
2018-05-23T17:38:07.548Z,34.30
2018-05-23T17:40:35.802Z,34.40
2018-05-23T17:43:04.135Z,34.60
2018-05-23T17:45:33.057Z,34.80
2018-05-23T17:48:01.286Z,34.70
2018-05-23T17:50:29.527Z,34.70
2018-05-23T17:52:57.783Z,34.70
2018-05-23T17:55:26.779Z,34.70
2018-05-23T17:57:55.017Z,34.70
2018-05-23T18:00:23.286Z,34.60
2018-05-23T18:02:52.240Z,34.80
2018-05-23T18:05:20.456Z,34.80
2018-05-23T18:07:48.711Z,34.60
2018-05-23T18:10:16.951Z,34.60
2018-05-23T18:12:45.168Z,34.60
2018-05-23T18:15:13.409Z,34.30
2018-05-23T18:17:41.679Z,34.40
2018-05-23T18:20:09.942Z,34.60
2018-05-23T18:22:38.932Z,34.90
2018-05-23T18:25:07.929Z,35.00
2018-05-23T18:27:36.207Z,34.90
2018-05-23T18:30:05.217Z,35.30
2018-05-23T18:32:33.445Z,35.30
2018-05-23T18:35:01.669Z,35.50
2018-05-23T18:37:29.881Z,35.70
2018-05-23T18:39:58.207Z,35.90
2018-05-23T18:42:27.181Z,36.30
2018-05-23T18:44:55.395Z,36.30
2018-05-23T18:47:23.656Z,36.50
2018-05-23T18:49:51.876Z,36.60
2018-05-23T18:52:20.090Z,36.90
2018-05-23T18:54:48.331Z,37.10
2018-05-23T18:57:16.670Z,37.30
2018-05-23T18:59:44.806Z,37.50
2018-05-23T19:02:13.053Z,37.80
2018-05-23T19:04:41.292Z,39.40
2018-05-23T19:07:09.508Z,40.20
2018-05-23T19:09:37.740Z,41.10
2018-05-23T19:12:05.960Z,41.70
2018-05-23T19:14:34.210Z,42.50
2018-05-23T19:17:02.446Z,43.10
2018-05-23T19:19:30.737Z,44.20
2018-05-23T19:21:58.924Z,44.80
2018-05-23T19:24:27.171Z,45.50
2018-05-23T19:26:55.391Z,45.90
2018-05-23T19:29:23.635Z,46.20
2018-05-23T19:31:52.648Z,46.70
2018-05-23T19:34:20.852Z,46.60
2018-05-23T19:36:49.092Z,47.20
2018-05-23T19:39:17.303Z,47.00
2018-05-23T19:41:45.573Z,46.90
2018-05-23T19:44:13.793Z,46.90
2018-05-23T19:46:42.757Z,47.10
2018-05-23T19:49:10.991Z,47.10
2018-05-23T19:51:39.206Z,47.30
2018-05-23T19:54:07.451Z,47.80
2018-05-23T19:56:35.715Z,47.80
2018-05-23T19:59:03.964Z,48.00
2018-05-23T20:01:32.171Z,48.00
2018-05-23T20:04:00.410Z,48.10
2018-05-23T20:06:28.635Z,48.30
2018-05-23T20:08:56.853Z,48.40
2018-05-23T20:11:25.097Z,48.40
2018-05-23T20:13:53.323Z,48.50
2018-05-23T20:16:21.573Z,48.50
2018-05-23T20:18:49.796Z,48.70
2018-05-23T20:21:18.784Z,49.00
2018-05-23T20:23:47.786Z,49.00
2018-05-23T20:26:16.788Z,49.30
2018-05-23T20:28:45.027Z,49.20
2018-05-23T20:31:13.257Z,49.40
2018-05-23T20:33:41.582Z,49.40
2018-05-23T20:36:09.781Z,49.50
2018-05-23T20:38:38.780Z,49.80
2018-05-23T20:41:07.001Z,49.80
2018-05-23T20:43:35.246Z,49.90
2018-05-23T20:46:03.466Z,50.10
2018-05-23T20:48:31.697Z,50.10
2018-05-23T20:50:59.927Z,50.10
2018-05-23T20:53:28.157Z,50.20
2018-05-23T20:55:56.368Z,50.20
2018-05-23T20:58:24.644Z,50.30
2018-05-23T21:00:52.828Z,50.30
2018-05-23T21:03:21.073Z,50.40
2018-05-23T21:05:49.314Z,50.40
2018-05-23T21:08:17.528Z,50.50
2018-05-23T21:10:45.768Z,50.50
2018-05-23T21:13:13.986Z,50.70
2018-05-23T21:15:42.216Z,50.70
2018-05-23T21:18:10.433Z,50.90
2018-05-23T21:20:38.665Z,50.90
2018-05-23T21:23:06.900Z,51.10
2018-05-23T21:25:35.114Z,51.10
2018-05-23T21:28:04.131Z,51.30
2018-05-23T21:30:32.371Z,51.30
2018-05-23T21:33:01.394Z,51.30
2018-05-23T21:35:29.602Z,51.30
2018-05-23T21:37:57.823Z,51.30
2018-05-23T21:40:26.822Z,51.50
2018-05-23T21:42:55.815Z,51.50
2018-05-23T21:45:24.851Z,51.60
2018-05-23T21:47:53.054Z,51.60
2018-05-23T21:50:21.275Z,51.60
2018-05-23T21:52:49.517Z,51.60
2018-05-23T21:55:17.732Z,51.60
2018-05-23T21:57:45.963Z,51.00
2018-05-23T22:00:14.188Z,51.70
2018-05-23T22:02:42.416Z,51.80
2018-05-23T22:05:10.628Z,51.90
2018-05-23T22:07:38.895Z,52.30
2018-05-23T22:10:07.091Z,51.80
2018-05-23T22:12:35.319Z,51.90
2018-05-23T22:15:03.539Z,51.90
2018-05-23T22:17:31.776Z,51.70
2018-05-23T22:19:59.982Z,51.60
2018-05-23T22:22:28.228Z,51.60
2018-05-23T22:24:56.455Z,51.80
2018-05-23T22:27:24.673Z,52.10
2018-05-23T22:29:52.917Z,51.90
2018-05-23T22:32:21.127Z,51.90
2018-05-23T22:34:49.400Z,51.90
2018-05-23T22:37:17.602Z,52.60
2018-05-23T22:39:46.580Z,52.00
2018-05-23T22:42:15.596Z,52.00
2018-05-23T22:44:44.570Z,52.10
2018-05-23T22:47:13.556Z,52.00
2018-05-23T22:49:41.791Z,52.00
2018-05-23T22:52:10.000Z,52.70
2018-05-23T22:54:39.049Z,52.10
2018-05-23T22:57:07.266Z,52.40
2018-05-23T22:59:35.507Z,52.30
2018-05-23T23:02:03.716Z,52.30
2018-05-23T23:04:31.965Z,52.20
2018-05-23T23:07:00.181Z,53.00
2018-05-23T23:09:28.393Z,52.30
2018-05-23T23:11:56.624Z,52.30
2018-05-23T23:14:24.832Z,52.10
2018-05-23T23:16:53.076Z,52.20
2018-05-23T23:19:21.286Z,52.20
2018-05-23T23:21:49.524Z,52.20
2018-05-23T23:24:17.759Z,52.20
2018-05-23T23:26:45.992Z,52.20
2018-05-23T23:29:15.024Z,52.50
2018-05-23T23:31:43.245Z,52.40
2018-05-23T23:34:11.481Z,52.50
2018-05-23T23:36:39.710Z,52.30
2018-05-23T23:39:08.712Z,52.60
2018-05-23T23:41:37.790Z,52.30
2018-05-23T23:44:05.983Z,52.20
2018-05-23T23:46:34.971Z,52.30
2018-05-23T23:49:03.984Z,52.30
2018-05-23T23:51:33.006Z,52.30
2018-05-23T23:54:01.219Z,52.30
2018-05-23T23:56:29.600Z,52.30
2018-05-23T23:58:57.823Z,52.40
